Погода Голембицена 2 недели

Нижнесилезское воеводство, Польша

15 - 28 июля
  • 15июля
    Сегодня
    +19°
    +30°
    Ясно и безоблачно
    ВремяПогодаТемператураВлажностьДавлениеВетер, м/сВероятность осадков
    02:00Пасмурно, сплошная облачность+18°C91 %748 мм1.8 м/с11 %
    05:00Ясно и безоблачно+17°C95 %749 мм1.3 м/с2 %
    08:00Ясно и безоблачно+21°C86 %749 мм0.8 м/с2 %
    11:00Ясно и безоблачно+26°C63 %749 мм0.8 м/с2 %
    14:00Ясно и безоблачно+29°C48 %749 мм1.3 м/с2 %
    17:00Ясно и безоблачно+30°C42 %748 мм1.0 м/с2 %
    20:00Ясно и безоблачно+27°C67 %748 мм1.3 м/с2 %
    23:00Ясно и безоблачно+22°C63 %747 мм2.9 м/с2 %
  • 16июля
    Вторник
    +16°
    +31°
    Небольшая облачность
    ВремяПогодаТемператураВлажностьДавлениеВетер, м/сВероятность осадков
    02:00Ясно и безоблачно+21°C76 %747 мм2.9 м/с2 %
    05:00Практически безоблачно+20°C83 %746 мм3.1 м/с2 %
    08:00Небольшая облачность+24°C78 %746 мм3.2 м/с2 %
    11:00Ясно и безоблачно+28°C63 %745 мм3.5 м/с4 %
    14:00Небольшая облачность+30°C63 %745 мм2.9 м/с38 %
    17:00Небольшая облачность, возможен дождь с грозой+27°C71 %746 мм4.9 м/с67 %
    20:00Облачно с прояснениями+24°C84 %747 мм0.9 м/с29 %
    23:00Практически безоблачно+21°C91 %748 мм2.1 м/с2 %
  • 17июля
    Среда
    +15°
    +26°
    Небольшая облачность
    ВремяПогодаТемператураВлажностьДавлениеВетер, м/сВероятность осадков
    02:00Практически безоблачно+18°C77 %749 мм2.0 м/с2 %
    05:00Ясно и безоблачно+17°C80 %750 мм2.3 м/с2 %
    08:00Небольшая облачность+21°C71 %751 мм2.1 м/с4 %
    11:00Облачно с прояснениями+24°C55 %752 мм2.3 м/с10 %
    14:00Небольшая облачность+26°C51 %752 мм3.2 м/с11 %
    17:00Облачно с прояснениями+25°C49 %752 мм3.1 м/с10 %
    20:00Ясно и безоблачно+23°C66 %752 мм1.7 м/с3 %
    23:00Ясно и безоблачно+19°C73 %753 мм2.1 м/с3 %
  • 18июля
    Четверг
    +15°
    +28°
    Облачно с прояснениями
    ВремяПогодаТемператураВлажностьДавлениеВетер, м/сВероятность осадков
    02:00Ясно и безоблачно+17°C77 %753 мм2.0 м/с2 %
    05:00Ясно и безоблачно+16°C82 %753 мм1.8 м/с2 %
    08:00Ясно и безоблачно+20°C73 %754 мм1.1 м/с2 %
    11:00Ясно и безоблачно+24°C49 %754 мм0.6 м/с2 %
    14:00Облачно с прояснениями+26°C43 %754 мм0.5 м/с4 %
    17:00Облачно с прояснениями+27°C43 %753 мм1.9 м/с2 %
    20:00Облачно с прояснениями+24°C60 %753 мм2.2 м/с2 %
    23:00Небольшая облачность+20°C66 %753 мм2.2 м/с2 %
  • 19июля
    Пятница
    +17°
    +27°
    Небольшая облачность
    ВремяПогодаТемператураВлажностьДавлениеВетер, м/сВероятность осадков
    02:00Ясно и безоблачно+17°C72 %753 мм2.2 м/с2 %
    05:00Ясно и безоблачно+17°C78 %753 мм1.8 м/с4 %
    08:00Ясно и безоблачно+20°C72 %753 мм0.4 м/с2 %
    11:00Ясно и безоблачно+25°C47 %753 мм1.4 м/с5 %
    14:00Небольшая облачность+27°C42 %752 мм2.0 м/с16 %
    17:00Небольшая облачность+27°C43 %751 мм2.3 м/с7 %
    20:00Ясно и безоблачно+24°C60 %751 мм2.8 м/с3 %
    23:00Облачно с прояснениями+21°C68 %751 мм2.7 м/с2 %
Мы используем cookies
Соглашаюсь